Airfield :
LOGIN :

Register | Disclaimer

   EN    FR    IT 

 










Legend :    VFR   Marginal VFR   IFR   Intensive IFR   Very Intensive IFR
Visi :
Ceiling :
>= 8 km
>= 3000ft
5 to 8 km
1000 to 3000 ft
1500m to 5 km
500 to 1000 ft
800 to 1500m
200 to 500 ft
< 800m
< 200 ft
Symbols :   Thunderstorms  Fog  Heavy snow  Heavy precipitations  Wind > 20 kt
SIGMETs :     Misc.  Thunderstorms  Icing  Turbulence  Mountain Waves  Volcanic Ashes







- Airport Elevation : -11 ft
- IATA code : AMS


EHAM - Amsterdam Schiphol

CURRENT METAR :
  • 200925Z 18012KT 9999 -RA FEW007 BKN022 BKN040 06/05 Q1016 BECMG BKN018 TEMPO 6000

EXPIRED METARs :
  • 200855Z 19012KT 5000 -DZRA FEW007 BKN024 BKN040 06/05 Q1016 BECMG BKN018 TEMPO 4000
  • 200825Z 18010KT 9999 FEW009 SCT020 BKN028 06/05 Q1016 BECMG BKN018
  • 200755Z 19011KT 9999 -RADZ FEW016 SCT033 BKN044 06/05 Q1017 NOSIG
  • 200725Z 19009KT 9999 -RA FEW017 SCT022 BKN040 06/05 Q1017 NOSIG
  • 200655Z 22010KT 9999 -RA FEW017 BKN022 OVC033 06/05 Q1018 BECMG BKN020

TAF TAF EHAM
Valid from the 20 at 06:00 until the 21 at 12:00 UTC


200503Z 2006/2112 24007KT 9999 SCT030
BECMG 2006/2008 21012KT 7000 RA BKN015
BECMG 2009/2012 18012KT SCT005 BKN007
PROB30
TEMPO 2012/2015 3000 DZ SCT003 BKN004
BECMG 2015/2018 27015G25KT 9999 NSW BKN015
PROB30
TEMPO 2020/2101 7000 -SHRA FEW008 SCT015TCU
BECMG 2022/2101 26010KT
BECMG 2103/2106 24008KT SCT005 BKN008
TEMPO 2105/2112 3500 -DZ OVC005
No reported NOTAMs for that airfield.



MET'MAP, your aeronautical weather chart ! - Copyright ORBIFLY December 2007 - Disclaimer

ORBIFLY MET'MAP TEAM :

Programming & Development : Alexandra Zaïnal
Concept & Development : Baudouin d'Aumeries
Co-Development & Prog : Marc-Olivier Méhu
Technical & hardware support : Manuel Goepfert

Contact : metmap@orbifly.com




SOURCES & CREDITS :

   NOAA